Time;durP1;ratioP1;P1;durP2;ratioP2;P2;SDS_P1;SDS_P2;PMS_P1;PMS_P2;Temp;Humidity;BMP_temperature;BMP_pressure;BME280_temperature;BME280_humidity;BME280_pressure;Samples;Min_cycle;Max_cycle;Signal;HPM_P1;HPM_P2
2021/07/10 00:01:02;;;;;;;1.83;1.73;;;;;;;19.67;58.21;99740.38;5021324;28;20257;-87
2021/07/10 00:03:29;;;;;;;2.20;1.90;;;;;;;19.68;58.23;99752.88;5054301;28;20242;-87
2021/07/10 00:05:55;;;;;;;2.17;1.97;;;;;;;19.71;58.49;99746.88;5070930;28;20322;-88
2021/07/10 00:08:22;;;;;;;2.00;1.90;;;;;;;19.45;58.72;99726.28;5053755;28;20233;-86
2021/07/10 00:10:49;;;;;;;2.33;2.00;;;;;;;19.55;58.76;99737.16;5053931;28;20261;-87
2021/07/10 00:13:16;;;;;;;2.07;1.97;;;;;;;19.64;58.70;99732.78;5053673;28;20668;-88
2021/07/10 00:15:43;;;;;;;1.80;1.70;;;;;;;19.57;58.48;99741.22;5037735;28;20226;-87
2021/07/10 00:18:10;;;;;;;2.30;2.10;;;;;;;19.62;58.80;99743.91;5053641;28;20309;-86
2021/07/10 00:20:36;;;;;;;2.23;2.10;;;;;;;19.59;58.91;99739.03;5037396;28;20733;-86
2021/07/10 00:23:03;;;;;;;2.20;2.10;;;;;;;19.68;58.88;99742.00;5037797;28;20218;-87
2021/07/10 00:25:30;;;;;;;2.20;2.10;;;;;;;19.73;59.04;99742.00;5053208;28;20233;-86
2021/07/10 00:27:57;;;;;;;2.00;1.90;;;;;;;19.60;58.98;99724.34;5037528;28;20281;-87
2021/07/10 00:30:24;;;;;;;2.30;2.10;;;;;;;19.57;59.52;99735.78;5036764;28;20235;-87
2021/07/10 00:32:51;;;;;;;2.60;2.40;;;;;;;19.55;59.53;99720.84;5053897;28;20227;-85
2021/07/10 00:35:19;;;;;;;2.17;2.00;;;;;;;19.60;59.35;99723.53;5053859;28;20257;-86
2021/07/10 00:37:46;;;;;;;2.50;2.30;;;;;;;19.55;59.59;99726.28;5033566;28;20230;-87
2021/07/10 00:40:13;;;;;;;2.30;2.10;;;;;;;19.62;59.42;99719.44;5033485;28;20246;-86
2021/07/10 00:42:41;;;;;;;2.60;2.17;;;;;;;19.67;59.29;99721.34;5034087;28;20226;-86
2021/07/10 00:45:10;;;;;;;2.50;2.30;;;;;;;19.58;59.35;99720.28;5033791;28;20262;-87
2021/07/10 00:47:37;;;;;;;3.40;2.40;;;;;;;19.48;59.72;99704.81;5033704;28;20548;-86
2021/07/10 00:50:15;;;;;;;2.47;2.27;;;;;;;19.43;60.22;99707.50;5033173;28;20227;-87
2021/07/10 00:52:42;;;;;;;2.53;2.30;;;;;;;19.37;60.25;99697.75;5050009;28;20227;-86
2021/07/10 00:55:09;;;;;;;2.40;2.20;;;;;;;19.42;60.31;99705.06;5033740;28;20240;-86
2021/07/10 00:57:37;;;;;;;2.40;2.20;;;;;;;19.40;60.62;99710.78;5016975;28;20293;-86
2021/07/10 01:00:06;;;;;;;2.60;2.40;;;;;;;19.34;60.66;99709.16;5066447;28;20309;-87
2021/07/10 01:02:34;;;;;;;3.77;2.40;;;;;;;19.31;60.82;99704.28;5050415;28;20231;-86
2021/07/10 01:05:05;;;;;;;2.43;2.23;;;;;;;19.29;60.96;99709.19;5033543;28;20241;-86
2021/07/10 01:07:32;;;;;;;3.23;2.33;;;;;;;19.15;61.24;99706.22;5033610;28;20264;-86
2021/07/10 01:09:59;;;;;;;2.60;2.40;;;;;;;19.15;61.13;99687.19;5033888;28;20305;-87
2021/07/10 01:12:26;;;;;;;2.80;2.60;;;;;;;19.13;61.78;99699.44;5032890;28;20218;-86
2021/07/10 01:14:53;;;;;;;3.83;2.60;;;;;;;19.19;61.35;99695.59;5033546;28;20231;-86
2021/07/10 01:17:20;;;;;;;2.50;2.30;;;;;;;19.10;61.85;99694.53;5033525;28;20239;-87
2021/07/10 01:20:01;;;;;;;2.57;2.37;;;;;;;19.01;62.17;99686.13;5034618;28;20314;-85
2021/07/10 01:22:28;;;;;;;2.80;2.60;;;;;;;19.03;62.44;99694.84;5016445;28;20226;-86
2021/07/10 01:24:55;;;;;;;2.87;2.67;;;;;;;18.91;62.66;99695.09;5033635;28;20641;-85
2021/07/10 01:27:22;;;;;;;2.80;2.60;;;;;;;18.91;63.00;99702.41;5033533;28;20234;-84
2021/07/10 01:29:49;;;;;;;3.00;2.80;;;;;;;18.74;63.05;99662.00;5033402;28;20661;-87
2021/07/10 01:32:17;;;;;;;2.83;2.50;;;;;;;18.80;63.35;99689.97;5032872;28;20253;-87
2021/07/10 01:34:45;;;;;;;2.57;2.40;;;;;;;18.86;63.31;99694.28;5033205;28;20237;-86
2021/07/10 01:37:16;;;;;;;2.90;2.70;;;;;;;18.82;63.61;99702.16;5034901;28;20229;-88
2021/07/10 01:39:43;;;;;;;2.60;2.40;;;;;;;18.77;63.66;99687.75;5036856;28;20315;-88
2021/07/10 01:42:11;;;;;;;2.93;2.60;;;;;;;18.83;63.59;99692.13;5036436;28;20319;-87
2021/07/10 01:44:38;;;;;;;3.27;3.00;;;;;;;18.64;64.05;99693.75;5053953;28;20241;-87
2021/07/10 01:47:05;;;;;;;3.10;2.90;;;;;;;18.57;64.62;99699.41;5036881;28;20254;-90
2021/07/10 01:49:33;;;;;;;3.00;2.80;;;;;;;18.59;64.43;99696.44;5036831;28;20508;-89
2021/07/10 01:52:00;;;;;;;2.90;2.70;;;;;;;18.62;64.59;99693.19;5053090;28;20273;-87
2021/07/10 01:54:26;;;;;;;3.10;2.70;;;;;;;18.70;64.22;99692.66;5052888;28;20226;-89
2021/07/10 01:56:53;;;;;;;2.77;2.57;;;;;;;18.62;64.48;99688.56;5070069;28;20695;-88
2021/07/10 01:59:20;;;;;;;3.10;2.90;;;;;;;18.61;64.59;99694.28;5036867;28;20246;-87
2021/07/10 02:01:47;;;;;;;3.13;2.93;;;;;;;18.54;65.13;99691.84;5036846;28;20518;-88
2021/07/10 02:04:22;;;;;;;3.07;2.87;;;;;;;18.50;65.34;99685.28;5036302;28;20222;-87
2021/07/10 02:06:49;;;;;;;3.00;2.80;;;;;;;18.57;65.24;99691.28;5036574;28;20276;-88
2021/07/10 02:09:16;;;;;;;2.70;2.50;;;;;;;18.64;64.97;99693.75;5020002;28;20230;-87
2021/07/10 02:11:44;;;;;;;2.87;2.67;;;;;;;18.62;64.89;99704.84;5036137;28;20226;-91
2021/07/10 02:14:12;;;;;;;2.87;2.67;;;;;;;18.62;64.79;99688.56;5035986;28;20229;-86
2021/07/10 02:16:39;;;;;;;3.00;2.80;;;;;;;18.68;64.74;99692.94;5036626;28;20226;-86
2021/07/10 02:19:06;;;;;;;3.00;2.70;;;;;;;18.62;65.02;99691.28;5019688;28;20234;-88
2021/07/10 02:21:33;;;;;;;2.83;2.53;;;;;;;18.50;65.17;99688.00;5035968;28;20234;-88
2021/07/10 02:24:00;;;;;;;2.93;2.73;;;;;;;18.47;65.47;99692.09;5036324;28;20218;-89
2021/07/10 02:26:28;;;;;;;2.90;2.70;;;;;;;18.58;65.06;99700.25;5052216;28;20226;-87
2021/07/10 02:28:55;;;;;;;2.80;2.60;;;;;;;18.54;64.82;99686.41;5036139;28;20229;-88
2021/07/10 02:31:22;;;;;;;3.10;2.80;;;;;;;18.77;64.34;99695.91;5052320;28;20576;-87
2021/07/10 02:33:50;;;;;;;2.80;2.60;;;;;;;18.69;64.56;99700.00;5052367;28;20222;-89
2021/07/10 02:36:17;;;;;;;3.27;2.97;;;;;;;18.64;64.27;99688.31;5052484;28;20250;-89
2021/07/10 02:38:44;;;;;;;2.87;2.67;;;;;;;18.61;64.54;99689.69;5052651;28;20230;-86
2021/07/10 02:41:12;;;;;;;2.93;2.73;;;;;;;18.69;64.01;99691.84;5036039;28;20654;-90
2021/07/10 02:43:38;;;;;;;3.70;2.90;;;;;;;18.86;64.20;99707.84;5035570;28;20230;-87
2021/07/10 02:46:06;;;;;;;3.13;2.90;;;;;;;18.76;64.34;99700.53;5019021;28;20313;-88
2021/07/10 02:48:33;;;;;;;2.90;2.70;;;;;;;18.74;64.38;99700.00;5034667;28;20309;-87
2021/07/10 02:51:00;;;;;;;3.20;2.90;;;;;;;18.79;64.69;99699.19;5035514;28;20241;-88
2021/07/10 02:53:26;;;;;;;3.27;3.00;;;;;;;18.72;64.71;99695.91;5035706;28;20305;-90
2021/07/10 02:55:53;;;;;;;3.30;3.10;;;;;;;18.69;65.27;99710.03;5052641;28;20230;-90
2021/07/10 02:58:20;;;;;;;3.83;2.87;;;;;;;18.58;65.80;99706.47;5035253;28;20314;-87
2021/07/10 03:00:47;;;;;;;3.57;3.00;;;;;;;18.56;66.31;99708.66;5035171;28;20230;-86
2021/07/10 03:03:13;;;;;;;3.63;3.30;;;;;;;18.52;66.67;99718.41;5035896;28;20297;-87
2021/07/10 03:05:40;;;;;;;3.50;3.30;;;;;;;18.39;67.12;99710.75;5035430;28;20228;-88
2021/07/10 03:08:07;;;;;;;3.20;3.00;;;;;;;18.29;67.46;99708.06;5034962;28;20237;-87
2021/07/10 03:10:34;;;;;;;3.93;3.53;;;;;;;18.42;67.31;99705.63;5035035;28;20234;-90
2021/07/10 03:13:01;;;;;;;3.70;3.40;;;;;;;18.29;67.88;99708.06;5034985;28;20233;-90
2021/07/10 03:15:28;;;;;;;3.90;3.40;;;;;;;18.23;68.10;99711.81;5035440;28;20241;-88
2021/07/10 03:17:55;;;;;;;3.60;3.30;;;;;;;18.22;68.17;99711.00;5035348;28;20605;-90
2021/07/10 03:20:24;;;;;;;3.37;3.07;;;;;;;18.31;68.17;99724.84;5034696;28;20230;-89
2021/07/10 03:22:51;;;;;;;3.87;3.57;;;;;;;18.29;68.30;99724.31;5035390;28;20313;-87
2021/07/10 03:25:17;;;;;;;4.97;3.60;;;;;;;18.27;68.55;99724.59;5035100;28;20537;-89
2021/07/10 03:27:46;;;;;;;6.67;4.20;;;;;;;18.23;68.59;99728.91;5034797;28;20245;-88
2021/07/10 03:30:16;;;;;;;4.50;4.10;;;;;;;18.14;69.03;99716.97;5034902;28;20237;-86
2021/07/10 03:32:43;;;;;;;4.53;3.90;;;;;;;18.18;68.81;99709.09;5051492;28;20240;-87
2021/07/10 03:35:12;;;;;;;5.60;3.90;;;;;;;18.21;69.01;99722.13;5035080;28;20317;-88
2021/07/10 03:37:44;;;;;;;3.83;3.53;;;;;;;18.26;68.87;99725.66;5034952;28;20235;-88
2021/07/10 03:40:13;;;;;;;3.70;3.40;;;;;;;18.37;68.48;99726.50;5050675;28;20673;-84
2021/07/10 03:42:41;;;;;;;3.57;3.27;;;;;;;18.24;68.70;99725.13;5034815;28;20234;-88
2021/07/10 03:45:10;;;;;;;3.67;3.47;;;;;;;18.24;69.02;99727.03;5034685;28;20280;-89
2021/07/10 03:47:37;;;;;;;3.93;3.63;;;;;;;18.26;68.77;99728.38;5034051;28;20238;-89
2021/07/10 03:50:06;;;;;;;3.87;3.50;;;;;;;18.32;68.46;99730.03;5034176;28;20618;-88
2021/07/10 03:52:33;;;;;;;4.30;3.90;;;;;;;18.30;68.42;99717.78;5051265;28;20287;-86
2021/07/10 03:55:01;;;;;;;3.67;3.40;;;;;;;18.40;68.22;99723.25;5050734;28;20308;-87
2021/07/10 03:57:28;;;;;;;3.60;3.30;;;;;;;18.37;68.27;99735.47;5034494;28;20513;-87
2021/07/10 03:59:56;;;;;;;3.60;3.30;;;;;;;18.25;68.50;99726.72;5050936;28;20230;-88
2021/07/10 04:02:23;;;;;;;3.33;3.10;;;;;;;18.60;67.96;99738.78;5033882;28;20250;-89
2021/07/10 04:04:50;;;;;;;4.40;3.57;;;;;;;19.14;65.55;99741.78;5017750;28;20321;-88
2021/07/10 04:07:18;;;;;;;4.33;3.63;;;;;;;20.32;61.59;99738.47;5018052;28;20234;-87
2021/07/10 04:09:45;;;;;;;5.27;3.60;;;;;;;21.64;57.17;99739.06;5050944;28;20236;-84
2021/07/10 04:12:12;;;;;;;3.97;3.50;;;;;;;22.63;54.58;99744.63;5050525;28;20241;-88
2021/07/10 04:14:38;;;;;;;3.57;3.27;;;;;;;22.85;53.37;99747.59;5033631;28;20230;-87
2021/07/10 04:17:05;;;;;;;3.77;3.40;;;;;;;22.84;53.59;99754.16;5034282;28;20645;-88
2021/07/10 04:19:32;;;;;;;3.23;2.93;;;;;;;22.73;53.85;99749.94;5017844;28;20641;-87
2021/07/10 04:21:59;;;;;;;3.60;3.30;;;;;;;22.29;54.87;99759.31;5033957;28;20589;-89
2021/07/10 04:24:26;;;;;;;3.30;3.10;;;;;;;21.62;57.00;99762.25;5033703;28;20229;-86
2021/07/10 04:26:53;;;;;;;2.97;2.77;;;;;;;21.83;56.26;99747.31;5034119;28;20239;-87
2021/07/10 04:29:20;;;;;;;3.03;2.83;;;;;;;21.91;56.35;99763.84;5045444;28;20233;-86
2021/07/10 04:31:47;;;;;;;3.30;2.97;;;;;;;22.31;55.33;99753.53;5033856;28;20236;-87
2021/07/10 04:34:14;;;;;;;3.10;2.70;;;;;;;22.58;54.89;99753.72;5017117;28;20227;-86
2021/07/10 04:36:40;;;;;;;3.37;3.00;;;;;;;22.91;53.66;99753.78;5033893;28;20259;-87
2021/07/10 04:39:07;;;;;;;3.40;3.10;;;;;;;22.60;54.08;99751.47;5034260;28;20315;-85
2021/07/10 04:41:34;;;;;;;3.00;2.80;;;;;;;22.26;55.22;99759.88;5050579;28;20235;-88
2021/07/10 04:44:01;;;;;;;3.87;3.27;;;;;;;21.75;56.59;99758.81;5033667;28;20587;-87
2021/07/10 04:46:28;;;;;;;4.53;3.23;;;;;;;21.24;58.07;99764.78;5034003;28;20344;-88
2021/07/10 04:48:55;;;;;;;3.60;3.27;;;;;;;20.84;59.46;99765.91;5033683;28;20242;-89
2021/07/10 04:51:22;;;;;;;3.47;3.17;;;;;;;20.84;60.08;99770.53;5033952;28;20227;-87
2021/07/10 04:53:49;;;;;;;3.00;2.80;;;;;;;20.80;60.61;99767.59;5050879;28;20237;-89
2021/07/10 04:56:16;;;;;;;3.13;2.93;;;;;;;20.73;60.77;99763.53;5017328;28;20229;-87
2021/07/10 04:58:44;;;;;;;3.57;3.30;;;;;;;20.56;61.03;99767.47;5017700;28;20534;-88
2021/07/10 05:01:12;;;;;;;3.90;3.60;;;;;;;20.69;61.14;99768.75;5017802;28;20719;-88
2021/07/10 05:03:40;;;;;;;3.87;3.57;;;;;;;20.74;61.24;99771.44;5017541;28;20223;-86
2021/07/10 05:06:08;;;;;;;3.57;3.27;;;;;;;20.84;61.10;99779.53;5033719;28;20231;-87
2021/07/10 05:08:36;;;;;;;3.80;3.40;;;;;;;20.97;60.46;99787.06;5034004;28;20328;-86
2021/07/10 05:11:03;;;;;;;3.47;3.17;;;;;;;21.13;60.07;99779.63;5066780;28;20540;-87
2021/07/10 05:13:29;;;;;;;3.77;3.33;;;;;;;21.11;60.18;99789.94;5021021;28;20247;-87
2021/07/10 05:15:56;;;;;;;4.57;3.70;;;;;;;21.23;59.05;99784.97;5037422;28;20224;-86
2021/07/10 05:18:23;;;;;;;3.60;3.30;;;;;;;21.46;58.30;99786.13;5037216;28;20232;-88
2021/07/10 05:20:50;;;;;;;4.10;3.80;;;;;;;21.38;58.08;99768.47;5053962;28;20247;-89
2021/07/10 05:23:17;;;;;;;5.37;3.50;;;;;;;21.17;58.61;99777.13;5038624;28;20314;-88
2021/07/10 05:25:43;;;;;;;3.57;3.30;;;;;;;21.15;58.38;99780.13;5037637;28;20634;-87
2021/07/10 05:28:10;;;;;;;3.80;3.50;;;;;;;21.53;57.78;99798.31;5037151;28;20264;-88
2021/07/10 05:30:38;;;;;;;3.60;3.30;;;;;;;21.63;56.44;99793.88;5037420;28;20240;-88
2021/07/10 05:33:04;;;;;;;2.80;2.60;;;;;;;21.81;55.98;99799.41;5021052;28;20258;-86
2021/07/10 05:35:31;;;;;;;2.50;2.30;;;;;;;21.99;54.85;99810.69;5037413;28;20286;-86
2021/07/10 05:37:58;;;;;;;2.80;2.60;;;;;;;21.95;54.05;99819.47;5020851;28;20713;-86
2021/07/10 05:40:25;;;;;;;2.67;2.13;;;;;;;21.81;54.13;99809.50;5020304;28;20232;-87
2021/07/10 05:42:53;;;;;;;2.10;2.00;;;;;;;21.75;54.10;99803.28;5053788;28;20308;-84
2021/07/10 05:45:20;;;;;;;2.17;2.07;;;;;;;21.85;53.73;99811.34;5037314;28;20238;-86
2021/07/10 05:47:47;;;;;;;2.00;1.80;;;;;;;21.92;53.70;99811.84;5020668;28;20668;-88
2021/07/10 05:50:14;;;;;;;3.60;2.17;;;;;;;21.88;53.43;99788.94;5069367;28;20550;-84
2021/07/10 05:52:41;;;;;;;3.93;2.30;;;;;;;22.04;53.11;99811.44;5020573;28;20271;-87
2021/07/10 05:55:09;;;;;;;2.30;2.10;;;;;;;22.14;52.79;99810.53;5036860;28;20228;-87
2021/07/10 05:57:36;;;;;;;5.13;1.80;;;;;;;22.18;52.89;99806.91;5037005;28;20240;-89
2021/07/10 06:00:07;;;;;;;3.27;2.00;;;;;;;22.27;52.15;99804.34;5036376;28;20620;-87
2021/07/10 06:02:33;;;;;;;1.87;1.77;;;;;;;22.23;52.43;99809.59;5053577;28;20233;-86
2021/07/10 06:05:02;;;;;;;2.90;1.93;;;;;;;22.43;51.80;99813.97;5036573;28;20230;-87
2021/07/10 06:07:29;;;;;;;1.97;1.77;;;;;;;22.49;51.44;99809.28;5053385;28;20305;-87
2021/07/10 06:09:56;;;;;;;2.03;1.90;;;;;;;22.39;51.07;99802.03;5038642;28;20285;-88
2021/07/10 06:12:23;;;;;;;1.83;1.70;;;;;;;22.29;51.02;99813.88;5039677;28;20228;-88
2021/07/10 06:14:50;;;;;;;1.63;1.53;;;;;;;22.15;51.01;99823.88;5023712;28;20608;-87
2021/07/10 06:17:17;;;;;;;1.50;1.40;;;;;;;22.32;50.40;99812.47;5039851;28;20649;-87
2021/07/10 06:19:44;;;;;;;1.47;1.37;;;;;;;22.55;49.84;99808.88;5056550;28;20265;-87
2021/07/10 06:22:11;;;;;;;2.07;1.80;;;;;;;22.66;49.94;99815.03;5072526;28;20268;-86
2021/07/10 06:24:38;;;;;;;1.57;1.47;;;;;;;22.64;49.26;99814.50;5071774;28;20230;-86
2021/07/10 06:27:04;;;;;;;1.60;1.50;;;;;;;22.63;49.34;99807.44;5072912;28;20236;-87
2021/07/10 06:29:31;;;;;;;1.70;1.47;;;;;;;22.38;49.35;99806.66;5056153;28;20250;-89
2021/07/10 06:31:58;;;;;;;1.93;1.50;;;;;;;22.59;49.10;99809.09;5072921;28;20247;-88
2021/07/10 06:34:25;;;;;;;1.40;1.30;;;;;;;22.54;48.33;99801.81;5072677;28;20232;-87
2021/07/10 06:36:52;;;;;;;1.37;1.30;;;;;;;22.24;48.85;99802.22;5057216;28;20227;-89
2021/07/10 06:39:20;;;;;;;1.50;1.40;;;;;;;22.64;48.45;99815.31;5023090;28;20315;-88
2021/07/10 06:41:47;;;;;;;1.73;1.30;;;;;;;22.53;48.50;99796.66;5056926;28;20239;-87
2021/07/10 06:44:14;;;;;;;1.30;1.30;;;;;;;22.83;48.26;99813.44;5039129;28;20665;-87
2021/07/10 06:46:41;;;;;;;1.30;1.20;;;;;;;22.66;47.17;99806.84;5056199;28;20231;-88
2021/07/10 06:49:08;;;;;;;1.20;1.10;;;;;;;22.92;46.52;99807.31;5056316;28;20566;-87
2021/07/10 06:51:35;;;;;;;1.40;1.30;;;;;;;22.98;46.50;99812.41;5055616;28;20227;-86
2021/07/10 06:54:02;;;;;;;1.87;1.10;;;;;;;23.06;46.95;99811.72;5055103;28;20630;-89
2021/07/10 06:56:29;;;;;;;1.20;1.10;;;;;;;22.94;46.46;99813.28;5055716;28;20232;-89
2021/07/10 06:58:56;;;;;;;1.20;1.10;;;;;;;23.06;46.36;99817.19;5055718;28;20736;-87
2021/07/10 07:01:23;;;;;;;1.50;0.90;;;;;;;23.31;45.59;99815.16;5039101;28;20259;-88
2021/07/10 07:03:51;;;;;;;1.07;1.00;;;;;;;23.20;45.58;99814.50;5055493;28;20232;-91
2021/07/10 07:06:18;;;;;;;2.80;1.00;;;;;;;23.06;44.83;99806.25;5038923;28;20234;-88
2021/07/10 07:08:45;;;;;;;0.90;0.90;;;;;;;23.21;45.02;99803.28;5022674;28;20347;-87
2021/07/10 07:11:12;;;;;;;1.20;1.10;;;;;;;23.09;45.47;99810.34;5039552;28;20636;-88
2021/07/10 07:13:39;;;;;;;1.07;1.03;;;;;;;23.05;45.54;99801.91;5055586;28;20224;-88
2021/07/10 07:16:06;;;;;;;0.80;0.80;;;;;;;23.16;45.38;99810.75;5054954;28;20241;-89
2021/07/10 07:18:36;;;;;;;1.00;0.97;;;;;;;23.33;45.30;99802.81;5039167;28;20292;-89
2021/07/10 07:21:04;;;;;;;2.10;0.90;;;;;;;23.35;44.79;99807.97;5038781;28;20228;-90
2021/07/10 07:23:31;;;;;;;1.17;0.90;;;;;;;23.40;42.62;99799.69;5038983;28;20539;-88
2021/07/10 07:25:58;;;;;;;1.40;0.90;;;;;;;23.59;43.11;99795.00;5038991;28;20305;-88
2021/07/10 07:28:25;;;;;;;0.97;0.83;;;;;;;23.43;44.01;99808.09;5038176;28;20230;-86
2021/07/10 07:30:52;;;;;;;1.00;0.90;;;;;;;23.45;43.54;99789.50;5038262;28;20535;-87
2021/07/10 07:33:18;;;;;;;2.37;0.90;;;;;;;23.37;43.63;99792.91;5037929;28;20229;-88
2021/07/10 07:35:45;;;;;;;0.87;0.87;;;;;;;23.49;44.38;99792.44;5054099;28;20232;-88
2021/07/10 07:38:12;;;;;;;1.70;0.90;;;;;;;23.55;43.79;99794.00;5037597;28;20726;-87
2021/07/10 07:40:39;;;;;;;2.63;1.10;;;;;;;23.74;42.90;99792.00;5071243;28;20224;-87
2021/07/10 07:43:07;;;;;;;0.88;0.88;;;;;;;23.66;42.26;99798.16;5054349;28;20231;-88
2021/07/10 07:45:34;;;;;;;0.90;0.90;;;;;;;24.10;41.52;99800.31;5054723;28;20573;-89
2021/07/10 07:48:01;;;;;;;0.83;0.83;;;;;;;23.85;42.13;99789.88;5044357;28;20229;-89
2021/07/10 07:50:28;;;;;;;0.75;0.75;;;;;;;23.81;42.66;99775.16;5052575;28;20535;-89
2021/07/10 07:52:54;;;;;;;0.80;0.80;;;;;;;24.04;42.27;99793.31;5036208;28;20331;-89
2021/07/10 07:55:21;;;;;;;0.80;0.80;;;;;;;24.14;41.94;99784.91;5037767;28;20298;-87
2021/07/10 07:57:49;;;;;;;0.85;0.70;;;;;;;24.32;41.98;99785.94;5054584;28;20239;-88
2021/07/10 08:00:19;;;;;;;0.80;0.80;;;;;;;24.42;41.75;99786.53;5052932;28;20610;-89
2021/07/10 08:02:47;;;;;;;0.73;0.73;;;;;;;24.58;40.25;99777.97;5037691;28;20240;-86
2021/07/10 08:05:15;;;;;;;0.60;0.60;;;;;;;24.58;40.48;99781.53;5054230;28;20230;-88
2021/07/10 08:07:42;;;;;;;0.80;0.70;;;;;;;24.64;39.63;99788.50;5054262;28;20232;-87
2021/07/10 08:10:12;;;;;;;0.60;0.60;;;;;;;24.62;40.39;99784.47;5053618;28;20308;-87
2021/07/10 08:12:40;;;;;;;0.98;0.98;;;;;;;24.88;39.80;99788.25;5037607;28;20233;-88
2021/07/10 08:15:09;;;;;;;0.80;0.80;;;;;;;24.27;41.52;99784.09;5053495;28;20576;-89
2021/07/10 08:17:41;;;;;;;0.70;0.68;;;;;;;24.53;39.59;99766.03;5037823;28;20229;-87
2021/07/10 08:20:09;;;;;;;1.60;1.00;;;;;;;24.68;40.50;99777.75;5036194;28;20236;-87
2021/07/10 08:22:35;;;;;;;1.40;0.70;;;;;;;24.52;41.01;99796.44;5036754;28;20237;-88
2021/07/10 08:25:04;;;;;;;1.17;0.82;;;;;;;24.68;40.62;99784.06;5036978;28;20230;-88
2021/07/10 08:27:32;;;;;;;0.90;0.90;;;;;;;24.69;39.29;99776.63;5053366;28;20229;-86
2021/07/10 08:29:59;;;;;;;0.73;0.73;;;;;;;24.81;39.73;99765.94;5052893;28;20221;-88
2021/07/10 08:32:25;;;;;;;0.70;0.70;;;;;;;24.65;39.83;99753.69;5051931;28;20947;-88
2021/07/10 08:34:52;;;;;;;1.02;0.90;;;;;;;24.92;41.07;99759.09;5020215;28;20244;-86
2021/07/10 08:37:19;;;;;;;1.42;1.10;;;;;;;25.02;40.30;99758.88;5053748;28;20257;-88
2021/07/10 08:39:46;;;;;;;1.05;0.98;;;;;;;24.78;40.20;99774.75;5036530;28;20231;-88
2021/07/10 08:42:13;;;;;;;1.67;0.90;;;;;;;24.88;40.54;99761.66;5036146;28;20629;-89
2021/07/10 08:44:41;;;;;;;1.42;1.00;;;;;;;25.12;40.56;99763.28;5053683;28;20283;-87
2021/07/10 08:47:13;;;;;;;0.93;0.93;;;;;;;25.05;40.16;99774.72;5038516;28;20255;-88
2021/07/10 08:49:41;;;;;;;1.05;0.73;;;;;;;25.09;38.68;99763.91;5040344;28;20316;-86
2021/07/10 08:52:08;;;;;;;0.70;0.70;;;;;;;25.28;39.35;99759.88;5039110;28;20621;-88
2021/07/10 08:54:36;;;;;;;1.75;1.00;;;;;;;25.08;39.32;99768.59;5056781;28;20237;-88
2021/07/10 08:57:04;;;;;;;0.80;0.80;;;;;;;25.46;38.77;99770.94;5058088;28;20304;-87
2021/07/10 08:59:31;;;;;;;0.80;0.80;;;;;;;25.22;38.66;99761.09;5057121;28;20571;-88
2021/07/10 09:01:58;;;;;;;0.70;0.70;;;;;;;25.44;38.65;99752.84;5056726;28;20272;-87
2021/07/10 09:04:25;;;;;;;0.60;0.60;;;;;;;25.44;36.33;99766.56;5056513;28;20287;-86
2021/07/10 09:06:52;;;;;;;0.50;0.50;;;;;;;25.39;37.41;99766.69;5056499;28;20245;-86
2021/07/10 09:09:19;;;;;;;0.93;0.93;;;;;;;25.33;38.49;99742.47;5040445;28;20324;-87
2021/07/10 09:12:00;;;;;;;0.82;0.70;;;;;;;25.42;38.16;99746.88;5024005;28;20596;-87
2021/07/10 09:14:30;;;;;;;1.90;0.90;;;;;;;25.67;38.62;99744.59;5039681;28;20250;-86
2021/07/10 09:17:20;;;;;;;2.00;0.98;;;;;;;25.80;37.67;99740.94;5039867;28;20637;-87
2021/07/10 09:19:52;;;;;;;2.67;1.00;;;;;;;25.80;38.47;99749.97;5056619;28;20225;-86
2021/07/10 09:22:27;;;;;;;1.13;0.90;;;;;;;25.49;38.74;99751.09;5039629;28;20241;-89
2021/07/10 09:24:56;;;;;;;1.13;0.90;;;;;;;25.29;38.50;99749.72;5056923;28;20237;-86
2021/07/10 09:27:23;;;;;;;0.70;0.70;;;;;;;25.57;38.13;99753.13;5056581;28;20320;-87
2021/07/10 09:29:52;;;;;;;1.55;0.70;;;;;;;25.69;37.09;99734.94;5056731;28;20229;-89
2021/07/10 09:32:23;;;;;;;0.80;0.80;;;;;;;25.58;37.07;99730.03;5039220;28;20229;-86
2021/07/10 09:34:52;;;;;;;0.80;0.75;;;;;;;25.88;36.87;99742.91;5039604;28;20563;-88
2021/07/10 09:37:24;;;;;;;1.30;0.80;;;;;;;26.14;36.71;99734.72;5039462;28;20235;-85
2021/07/10 09:40:09;;;;;;;0.60;0.60;;;;;;;26.04;36.49;99716.63;5040051;28;20523;-86
2021/07/10 09:42:42;;;;;;;2.45;0.90;;;;;;;26.16;36.47;99730.56;5033650;28;20227;-87
2021/07/10 09:45:15;;;;;;;1.88;1.10;;;;;;;25.82;37.57;99728.50;5078582;28;20225;-86
2021/07/10 09:47:42;;;;;;;1.23;1.00;;;;;;;26.05;37.39;99734.72;5039512;28;20528;-88
2021/07/10 09:50:17;;;;;;;1.00;1.00;;;;;;;26.26;36.78;99721.22;5022985;28;20275;-87
2021/07/10 09:52:43;;;;;;;0.98;0.90;;;;;;;25.85;38.25;99713.34;5034267;28;20226;-88
2021/07/10 09:55:16;;;;;;;1.05;0.90;;;;;;;26.07;38.15;99713.25;5056311;28;20230;-87
2021/07/10 09:57:44;;;;;;;1.10;1.10;;;;;;;25.95;38.29;99715.78;5055947;28;20224;-86
2021/07/10 10:00:12;;;;;;;1.15;1.05;;;;;;;25.75;38.16;99711.72;5014498;28;20643;-85
2021/07/10 10:02:43;;;;;;;0.82;0.82;;;;;;;25.73;38.13;99721.38;5056285;28;20226;-87
2021/07/10 10:05:18;;;;;;;0.80;0.80;;;;;;;26.10;38.53;99714.53;5059701;28;20219;-87
2021/07/10 10:07:52;;;;;;;1.23;1.00;;;;;;;25.61;37.83;99708.28;5039570;28;20604;-86
2021/07/10 10:10:34;;;;;;;1.70;0.98;;;;;;;26.07;38.85;99716.00;5055463;28;20640;-86
2021/07/10 10:13:10;;;;;;;0.63;0.63;;;;;;;26.35;37.48;99704.75;5056652;28;20530;-85
2021/07/10 10:15:41;;;;;;;1.25;1.00;;;;;;;26.18;38.24;99708.25;5055547;28;20630;-87
2021/07/10 10:18:09;;;;;;;1.00;0.90;;;;;;;25.95;37.16;99673.81;5055671;28;20228;-86
2021/07/10 10:20:37;;;;;;;0.73;0.73;;;;;;;26.34;38.42;99701.19;5039379;28;20250;-86
2021/07/10 10:23:06;;;;;;;1.38;0.90;;;;;;;26.65;37.98;99690.03;5039516;28;20256;-85
2021/07/10 10:25:36;;;;;;;1.20;0.90;;;;;;;26.60;36.69;99677.28;5055760;28;20221;-86
2021/07/10 10:28:05;;;;;;;0.80;0.80;;;;;;;26.84;36.55;99679.53;5039021;28;20227;-88
2021/07/10 10:30:32;;;;;;;0.85;0.85;;;;;;;26.89;37.11;99673.88;5071861;28;20648;-86
2021/07/10 10:32:59;;;;;;;0.80;0.80;;;;;;;27.24;35.16;99687.56;5072327;28;20242;-85
2021/07/10 10:35:27;;;;;;;0.80;0.80;;;;;;;27.07;34.92;99683.69;5055415;28;20225;-84
2021/07/10 10:37:54;;;;;;;0.73;0.73;;;;;;;27.41;33.38;99677.28;5055577;28;20227;-89
2021/07/10 10:40:24;;;;;;;0.70;0.70;;;;;;;27.40;33.72;99661.91;5054599;28;20316;-85
2021/07/10 10:42:55;;;;;;;1.15;0.70;;;;;;;27.36;33.32;99668.41;5055511;28;20240;-87
2021/07/10 10:45:30;;;;;;;0.80;0.80;;;;;;;27.55;33.86;99658.66;5055181;28;20237;-86
2021/07/10 10:47:57;;;;;;;0.90;0.90;;;;;;;27.75;33.41;99651.59;5038433;28;20243;-85
2021/07/10 10:50:29;;;;;;;1.27;0.60;;;;;;;27.85;33.05;99659.47;5054960;28;20499;-86
2021/07/10 10:52:58;;;;;;;1.08;0.70;;;;;;;27.63;32.19;99645.97;5038667;28;20544;-86
2021/07/10 10:55:33;;;;;;;0.85;0.80;;;;;;;28.06;32.10;99651.22;5038895;28;20253;-86
2021/07/10 10:58:09;;;;;;;1.40;0.75;;;;;;;27.88;32.50;99645.03;5055234;28;20240;-87
2021/07/10 11:00:37;;;;;;;0.80;0.80;;;;;;;27.87;32.85;99642.59;5054277;28;20233;-88
2021/07/10 11:03:15;;;;;;;0.60;0.60;;;;;;;27.93;32.88;99633.81;5038544;28;20235;-87
2021/07/10 11:05:48;;;;;;;0.75;0.60;;;;;;;27.86;33.37;99633.53;5038942;28;20229;-87
2021/07/10 11:08:17;;;;;;;0.93;0.90;;;;;;;27.67;35.17;99637.88;5038215;28;20233;-86
2021/07/10 11:10:54;;;;;;;0.77;0.77;;;;;;;27.33;34.94;99617.63;5053915;28;20291;-86
2021/07/10 11:13:30;;;;;;;0.63;0.63;;;;;;;27.85;33.68;99620.94;5055837;28;20234;-83
2021/07/10 11:16:04;;;;;;;0.70;0.70;;;;;;;27.99;33.48;99617.91;5070766;28;20259;-84
2021/07/10 11:18:54;;;;;;;0.70;0.70;;;;;;;28.34;32.20;99613.75;5055024;28;20596;-84
2021/07/10 11:21:44;;;;;;;0.77;0.77;;;;;;;28.37;32.50;99615.03;5055962;28;20242;-87
2021/07/10 11:24:19;;;;;;;0.70;0.68;;;;;;;28.78;31.44;99612.25;5054424;28;20229;-85
2021/07/10 11:26:55;;;;;;;0.80;0.80;;;;;;;28.95;31.34;99611.22;5071332;28;20232;-84
2021/07/10 11:29:38;;;;;;;2.63;0.80;;;;;;;29.11;30.96;99600.34;5054781;28;20732;-83
2021/07/10 11:32:12;;;;;;;1.13;0.80;;;;;;;28.95;30.33;99600.19;5054103;28;20239;-84
2021/07/10 11:34:41;;;;;;;2.90;0.80;;;;;;;29.05;31.00;99593.44;5055912;28;20226;-84
2021/07/10 11:37:22;;;;;;;1.45;0.75;;;;;;;29.02;30.95;99591.38;5054275;28;20320;-84
2021/07/10 11:39:58;;;;;;;0.73;0.70;;;;;;;28.96;30.53;99589.97;5038465;28;20320;-84